createdAt,value
2022-08-10T00:04:50.718Z,81.67
2022-08-10T00:09:53.659Z,80.73
2022-08-10T00:14:56.640Z,80.88
2022-08-10T00:20:03.000Z,81.11
2022-08-10T00:25:08.284Z,82.61
2022-08-10T00:30:12.641Z,81.35
2022-08-10T00:35:16.943Z,81.13
2022-08-10T00:40:19.980Z,81.10
2022-08-10T00:45:40.640Z,80.62
2022-08-10T00:50:45.207Z,81.75
2022-08-10T00:57:07.871Z,80.94
2022-08-10T01:02:09.903Z,82.06
2022-08-10T01:06:42.766Z,81.73
2022-08-10T01:12:28.678Z,82.12
2022-08-10T01:17:18.628Z,82.71
2022-08-10T01:22:57.692Z,81.70
2022-08-10T01:28:09.408Z,82.04
2022-08-10T01:33:20.087Z,82.07
2022-08-10T01:38:38.809Z,82.00
2022-08-10T01:43:44.071Z,83.42
2022-08-10T01:48:51.151Z,83.09
2022-08-10T01:53:57.879Z,83.15
2022-08-10T01:59:03.868Z,82.81
2022-08-10T02:04:11.956Z,83.36
2022-08-10T02:09:20.006Z,83.76
2022-08-10T02:14:24.712Z,83.85
2022-08-10T02:19:31.031Z,86.02
2022-08-10T02:24:35.993Z,85.58
2022-08-10T02:29:42.381Z,84.54
2022-08-10T02:34:48.632Z,85.63
2022-08-10T02:39:51.829Z,86.83
2022-08-10T02:45:27.144Z,85.29
2022-08-10T02:50:28.909Z,87.07
2022-08-10T02:55:38.768Z,86.92
2022-08-10T03:00:46.213Z,87.27
2022-08-10T03:05:54.830Z,86.90
2022-08-10T03:11:01.074Z,87.05
2022-08-10T03:16:05.414Z,87.16
2022-08-10T03:21:12.056Z,87.03
2022-08-10T03:26:20.033Z,87.58
2022-08-10T03:31:23.510Z,85.42
2022-08-10T03:36:43.620Z,86.70
2022-08-10T03:41:55.746Z,86.45
2022-08-10T03:47:02.385Z,86.45
2022-08-10T03:52:07.771Z,87.88
2022-08-10T03:57:11.614Z,87.34
2022-08-10T04:02:45.387Z,88.19
2022-08-10T04:07:40.548Z,88.13
2022-08-10T04:12:43.479Z,89.46
2022-08-10T04:18:02.637Z,90.35
2022-08-10T04:23:14.924Z,91.54
2022-08-10T04:28:18.181Z,92.59
2022-08-10T04:33:23.905Z,90.23
2022-08-10T04:38:30.151Z,91.36
2022-08-10T04:43:33.234Z,92.06
2022-08-10T04:48:43.403Z,90.79
2022-08-10T04:54:03.991Z,92.78
2022-08-10T04:59:11.903Z,91.59
2022-08-10T05:04:36.984Z,93.65
2022-08-10T05:10:03.125Z,91.32
2022-08-10T05:15:03.423Z,94.03
2022-08-10T05:20:08.668Z,95.08
2022-08-10T05:25:15.459Z,93.58
2022-08-10T05:30:20.330Z,92.10
2022-08-10T05:35:23.319Z,92.74
2022-08-10T05:40:30.313Z,92.34
2022-08-10T05:45:33.999Z,92.98
2022-08-10T05:50:56.969Z,92.82
2022-08-10T05:56:02.548Z,92.24
2022-08-10T06:01:12.916Z,93.83
2022-08-10T06:06:21.797Z,93.22
2022-08-10T06:12:27.945Z,91.83
2022-08-10T06:16:55.964Z,93.48
2022-08-10T06:22:00.796Z,92.40
2022-08-10T06:27:06.450Z,90.25
2022-08-10T06:32:12.811Z,93.91
2022-08-10T06:37:18.573Z,92.19
2022-08-10T06:42:30.388Z,91.44
2022-08-10T06:47:40.362Z,89.52
2022-08-10T06:52:44.907Z,88.83
2022-08-10T06:57:59.671Z,92.18
2022-08-10T07:03:08.960Z,90.24
2022-08-10T07:08:12.897Z,90.62
2022-08-10T07:14:16.432Z,88.68
2022-08-10T07:18:45.823Z,90.14
2022-08-10T07:23:55.617Z,90.02
2022-08-10T07:29:06.626Z,89.28
2022-08-10T07:34:10.980Z,90.08
2022-08-10T07:39:15.394Z,89.29
2022-08-10T07:44:42.500Z,88.97
2022-08-10T07:49:48.193Z,88.06
2022-08-10T07:54:54.775Z,85.35
2022-08-10T08:00:02.891Z,86.15
2022-08-10T08:05:55.169Z,82.98
2022-08-10T08:10:39.294Z,80.98
2022-08-10T08:16:17.115Z,79.75
2022-08-10T08:21:16.063Z,79.58
2022-08-10T08:26:31.828Z,78.46
2022-08-10T08:32:02.091Z,77.15
2022-08-10T08:37:05.813Z,76.98
2022-08-10T08:42:19.451Z,76.32
2022-08-10T08:48:03.399Z,71.84
2022-08-10T08:53:22.880Z,70.26
2022-08-10T08:58:39.767Z,68.64
2022-08-10T09:04:02.577Z,67.97
2022-08-10T09:09:33.471Z,67.20
2022-08-10T09:14:41.921Z,65.83
2022-08-10T09:19:53.422Z,62.47
2022-08-10T09:25:00.171Z,63.13
2022-08-10T09:30:07.260Z,59.15
2022-08-10T09:36:24.247Z,59.59
2022-08-10T09:41:01.268Z,58.18
2022-08-10T09:46:14.185Z,57.17
2022-08-10T09:51:47.351Z,53.76
2022-08-10T09:57:17.791Z,51.26
2022-08-10T10:02:28.123Z,51.16
2022-08-10T10:07:32.749Z,48.88
2022-08-10T10:12:46.042Z,48.79
2022-08-10T10:18:06.251Z,45.90
2022-08-10T10:23:17.499Z,45.58
2022-08-10T10:29:06.899Z,46.66
2022-08-10T10:34:15.126Z,45.72
2022-08-10T10:39:24.224Z,44.89
2022-08-10T10:44:43.339Z,42.65
2022-08-10T10:49:55.294Z,42.64
2022-08-10T10:55:14.472Z,42.50
2022-08-10T11:00:22.058Z,40.70
2022-08-10T11:05:39.467Z,37.82
2022-08-10T11:10:52.661Z,39.60
2022-08-10T11:16:04.616Z,36.02
2022-08-10T11:21:17.090Z,35.42
2022-08-10T11:26:29.773Z,37.50
2022-08-10T11:31:38.819Z,35.73
2022-08-10T11:36:48.575Z,36.31
2022-08-10T11:42:09.792Z,35.05
2022-08-10T11:47:19.514Z,35.38
2022-08-10T11:52:29.605Z,34.70
2022-08-10T11:57:54.795Z,34.13
2022-08-10T12:03:05.179Z,34.10
2022-08-10T12:10:04.573Z,35.14
2022-08-10T12:13:58.447Z,34.54
2022-08-10T12:19:11.747Z,34.75
2022-08-10T12:24:23.326Z,33.87
2022-08-10T12:29:39.447Z,34.50
2022-08-10T12:34:50.872Z,34.53
2022-08-10T12:40:31.785Z,34.12
2022-08-10T12:45:37.202Z,34.54
2022-08-10T12:50:45.028Z,33.65
2022-08-10T12:55:50.296Z,33.90
2022-08-10T13:01:15.061Z,33.23
2022-08-10T13:06:19.288Z,33.36
2022-08-10T13:12:37.151Z,32.46
2022-08-10T13:16:57.501Z,33.23
2022-08-10T13:22:03.791Z,32.97
2022-08-10T13:27:25.712Z,33.18
2022-08-10T13:32:33.482Z,31.99
2022-08-10T13:37:38.505Z,33.42
2022-08-10T13:42:42.775Z,32.49
2022-08-10T13:47:50.548Z,31.25
2022-08-10T13:52:56.914Z,32.77
2022-08-10T13:58:03.886Z,32.27
2022-08-10T14:03:11.706Z,30.75
2022-08-10T14:08:18.348Z,32.59
2022-08-10T14:13:22.990Z,31.82
2022-08-10T14:18:28.765Z,30.97
2022-08-10T14:23:33.133Z,30.51
2022-08-10T14:28:40.886Z,29.86
2022-08-10T14:33:50.879Z,29.01
2022-08-10T14:38:57.555Z,31.92
2022-08-10T14:44:06.401Z,29.93
2022-08-10T14:49:26.657Z,30.83
2022-08-10T14:54:33.327Z,29.17
2022-08-10T15:00:23.140Z,30.27
2022-08-10T15:05:04.586Z,30.07
2022-08-10T15:10:19.007Z,30.89
2022-08-10T15:15:28.371Z,29.79
2022-08-10T15:20:33.418Z,29.39
2022-08-10T15:25:57.658Z,28.22
2022-08-10T15:31:01.792Z,29.12
2022-08-10T15:36:26.204Z,30.82
2022-08-10T15:41:57.649Z,29.33
2022-08-10T15:47:05.319Z,29.44
2022-08-10T15:52:38.713Z,28.97
2022-08-10T15:57:43.717Z,29.52
2022-08-10T16:02:52.128Z,29.46
2022-08-10T16:08:03.719Z,29.23
2022-08-10T16:13:50.292Z,30.50
2022-08-10T16:18:39.955Z,29.48
2022-08-10T16:23:58.337Z,30.38
2022-08-10T16:29:14.158Z,30.08
2022-08-10T16:34:17.974Z,27.73
2022-08-10T16:39:59.984Z,26.02
2022-08-10T16:44:53.278Z,23.26
2022-08-10T16:49:58.885Z,23.24
2022-08-10T16:55:17.240Z,23.96
2022-08-10T17:00:29.531Z,25.58
2022-08-10T17:06:10.184Z,25.97
2022-08-10T17:10:59.417Z,27.59
2022-08-10T17:16:05.042Z,29.13
2022-08-10T17:21:15.080Z,29.14
2022-08-10T17:26:29.178Z,29.99
2022-08-10T17:31:54.801Z,29.85
2022-08-10T17:36:59.900Z,30.52
2022-08-10T17:42:05.412Z,31.15
2022-08-10T17:47:11.018Z,31.45
2022-08-10T17:52:21.927Z,31.48
2022-08-10T17:57:27.602Z,31.85
2022-08-10T18:02:37.002Z,31.53
2022-08-10T18:07:45.570Z,32.19
2022-08-10T18:12:52.666Z,31.83
2022-08-10T18:17:59.968Z,32.74
2022-08-10T18:23:04.476Z,33.50
2022-08-10T18:28:12.002Z,34.21
2022-08-10T18:33:17.503Z,34.78
2022-08-10T18:38:22.425Z,34.63
2022-08-10T18:44:06.753Z,35.35
2022-08-10T18:49:01.058Z,36.22
2022-08-10T18:54:44.555Z,36.74
2022-08-10T19:00:03.871Z,37.22
2022-08-10T19:05:30.981Z,37.61
2022-08-10T19:10:41.031Z,37.84
2022-08-10T19:15:52.884Z,39.77
2022-08-10T19:21:01.975Z,40.88
2022-08-10T19:26:41.623Z,42.03
2022-08-10T19:31:50.957Z,43.23
2022-08-10T19:37:08.542Z,44.50
2022-08-10T19:42:20.426Z,45.08
2022-08-10T19:47:40.178Z,46.01
2022-08-10T19:52:50.559Z,46.51
2022-08-10T19:57:58.322Z,47.57
2022-08-10T20:03:14.481Z,49.16
2022-08-10T20:08:23.022Z,48.95
2022-08-10T20:13:35.055Z,49.92
2022-08-10T20:18:44.481Z,50.92
2022-08-10T20:23:55.115Z,52.11
2022-08-10T20:29:07.677Z,53.39
2022-08-10T20:34:17.618Z,53.66
2022-08-10T20:39:30.717Z,54.09
2022-08-10T20:44:43.448Z,54.06
2022-08-10T20:49:58.460Z,54.11
2022-08-10T20:55:08.567Z,54.29
2022-08-10T21:00:15.180Z,54.68
2022-08-10T21:05:28.080Z,55.21
2022-08-10T21:10:57.680Z,56.75
2022-08-10T21:16:13.773Z,56.49
2022-08-10T21:21:58.896Z,57.96
2022-08-10T21:27:15.246Z,57.56
2022-08-10T21:32:34.173Z,58.90
2022-08-10T21:37:44.859Z,58.66
2022-08-10T21:43:44.039Z,58.24
2022-08-10T21:49:14.583Z,58.13
2022-08-10T21:54:44.877Z,58.15
2022-08-10T22:00:11.118Z,57.67
2022-08-10T22:05:39.277Z,56.88
2022-08-10T22:11:06.390Z,55.74
2022-08-10T22:16:37.449Z,55.18
2022-08-10T22:22:19.912Z,55.55
2022-08-10T22:27:54.315Z,56.32
2022-08-10T22:33:32.543Z,58.33
2022-08-10T22:39:08.934Z,58.82
2022-08-10T22:44:36.755Z,58.94
2022-08-10T22:49:38.576Z,58.27
2022-08-10T22:55:06.853Z,59.84
2022-08-10T23:00:17.681Z,59.35
2022-08-10T23:05:30.633Z,59.23
2022-08-10T23:10:40.340Z,59.83
2022-08-10T23:16:16.066Z,60.76
2022-08-10T23:21:21.199Z,60.21
2022-08-10T23:26:27.122Z,61.43
2022-08-10T23:32:01.170Z,61.22
2022-08-10T23:36:58.466Z,60.99
2022-08-10T23:42:07.686Z,61.33
2022-08-10T23:47:15.284Z,61.91
2022-08-10T23:52:21.391Z,61.91
2022-08-10T23:57:27.628Z,62.26
